الديوانية, العراق

08:01 AM AST on وèلهبر 01, 2014 (GMT +0300)
Al-ashraf Intl | Change Station
CLOSE
Current Station
Airport
Location: Al-ashraf Intl,
Elevation: 105 ft
Nearby Weather Stations

Elev 105 ft 31.99 °N, 44.40 °E | Updated 1 hour ago

Clear
صافية
63 °F
Feels Like 63 °F
N
10
ريح متغير ريح from NW

هذا اليوم
High -- | Low -- °F
--% Chance of Precip.
Yesterday
High -- | Low -- °F
Precip. -- في
6:16 AM 5:10 PM
الأحدب الأول, 62% visible
الضغط 29.89 في
وضوح الرؤية 4.3 أميال
سحابات
نقطة الندى 52 °F
الرطوبة 68%
Rainfall 0.00 في
عمق الثلج Not available.
الأشعة فوق البنفسجية Not available.
Pollen Not available.
جودة الهواء Not available.
Flu Activity Not available.
METAR ORNI 010400Z 31009KT 7000 NSC 17/11 Q1012 NOSIG

More Conditions Fewer Conditions

الضغط 29.89 في
وضوح الرؤية 4.3 أميال
سحابات
نقطة الندى 52 °F
الرطوبة 68%
Rainfall 0.00 في
عمق الثلج Not available.
الأشعة فوق البنفسجية Not available.
Pollen Not available.
جودة الهواء Not available.
Flu Activity Not available.
METAR ORNI 010400Z 31009KT 7000 NSC 17/11 Q1012 NOSIG

More Conditions Fewer Conditions

10-Day Weather Forecast

Almanac

علم الفلك

Nov. 01, 2014 Rise Set
Actual Time
Civil Twilight
Nautical Twilight
Astronomical Twilight
قمر
Length Of Visible Light
طول الیوم
Tomorrow will be .
, % of the Moon is Illuminated

Today's Extremes

Country Highs Country Lows

Community

WunderPhotos

Upload Photos

1,766,857 photos uploaded!

WunderBlogs® & News

Nearby

جودة الهواء

  جودة الهواء AQ Index Pollutant
Not available.

عمق الثلج

Station Depth Elevation

Earthquake Activity

City Distance Mag. Time & Date
Minimum magnitude displayed is 2.5.

Coastal Water Temperatures

مكان درجات الحرارة

Nearby Weather Stations